sensor_id;sensor_type;location;lat;lon;timestamp;temperature;humidity
51383;DHT22;37475;43.358;1.248;2023-02-20T00:00:09;6.10;92.10
51383;DHT22;37475;43.358;1.248;2023-02-20T00:02:42;6.00;92.90
51383;DHT22;37475;43.358;1.248;2023-02-20T00:05:07;5.90;93.10
51383;DHT22;37475;43.358;1.248;2023-02-20T00:07:33;5.90;93.30
51383;DHT22;37475;43.358;1.248;2023-02-20T00:09:59;5.80;93.40
51383;DHT22;37475;43.358;1.248;2023-02-20T00:12:25;5.80;93.50
51383;DHT22;37475;43.358;1.248;2023-02-20T00:14:51;5.70;93.50
51383;DHT22;37475;43.358;1.248;2023-02-20T00:17:16;5.80;93.70
51383;DHT22;37475;43.358;1.248;2023-02-20T00:19:42;5.80;93.80
51383;DHT22;37475;43.358;1.248;2023-02-20T00:22:08;5.80;93.80
51383;DHT22;37475;43.358;1.248;2023-02-20T00:24:34;5.70;93.80
51383;DHT22;37475;43.358;1.248;2023-02-20T00:27:00;5.80;94.00
51383;DHT22;37475;43.358;1.248;2023-02-20T00:29:25;5.70;94.30
51383;DHT22;37475;43.358;1.248;2023-02-20T00:31:56;5.60;94.40
51383;DHT22;37475;43.358;1.248;2023-02-20T00:34:25;5.60;94.50
51383;DHT22;37475;43.358;1.248;2023-02-20T00:36:52;5.60;94.60
51383;DHT22;37475;43.358;1.248;2023-02-20T00:39:17;5.60;94.80
51383;DHT22;37475;43.358;1.248;2023-02-20T00:41:43;5.60;94.90
51383;DHT22;37475;43.358;1.248;2023-02-20T00:44:09;5.50;94.90
51383;DHT22;37475;43.358;1.248;2023-02-20T00:46:35;5.50;95.00
51383;DHT22;37475;43.358;1.248;2023-02-20T00:49:01;5.40;95.10
51383;DHT22;37475;43.358;1.248;2023-02-20T00:51:27;5.40;95.10
51383;DHT22;37475;43.358;1.248;2023-02-20T00:53:53;5.40;95.10
51383;DHT22;37475;43.358;1.248;2023-02-20T00:56:19;5.30;95.20
51383;DHT22;37475;43.358;1.248;2023-02-20T00:58:45;5.20;95.30
51383;DHT22;37475;43.358;1.248;2023-02-20T01:01:11;5.20;95.40
51383;DHT22;37475;43.358;1.248;2023-02-20T01:03:37;5.20;95.40
51383;DHT22;37475;43.358;1.248;2023-02-20T01:06:02;5.20;95.40
51383;DHT22;37475;43.358;1.248;2023-02-20T01:08:28;5.20;95.40
51383;DHT22;37475;43.358;1.248;2023-02-20T01:10:54;5.20;95.50
51383;DHT22;37475;43.358;1.248;2023-02-20T01:13:20;5.20;95.50
51383;DHT22;37475;43.358;1.248;2023-02-20T01:15:46;5.30;95.50
51383;DHT22;37475;43.358;1.248;2023-02-20T01:18:11;5.40;95.40
51383;DHT22;37475;43.358;1.248;2023-02-20T01:20:37;5.40;95.30
51383;DHT22;37475;43.358;1.248;2023-02-20T01:23:03;5.20;95.20
51383;DHT22;37475;43.358;1.248;2023-02-20T01:25:29;5.10;95.30
51383;DHT22;37475;43.358;1.248;2023-02-20T01:27:55;5.00;95.30
51383;DHT22;37475;43.358;1.248;2023-02-20T01:30:21;5.10;95.40
51383;DHT22;37475;43.358;1.248;2023-02-20T01:32:47;5.10;95.30
51383;DHT22;37475;43.358;1.248;2023-02-20T01:35:14;5.10;95.30
51383;DHT22;37475;43.358;1.248;2023-02-20T01:37:40;5.10;95.10
51383;DHT22;37475;43.358;1.248;2023-02-20T01:40:07;5.10;95.00
51383;DHT22;37475;43.358;1.248;2023-02-20T01:42:38;5.10;95.00
51383;DHT22;37475;43.358;1.248;2023-02-20T01:47:51;5.20;94.80
51383;DHT22;37475;43.358;1.248;2023-02-20T01:50:30;5.20;94.60
51383;DHT22;37475;43.358;1.248;2023-02-20T01:53:02;5.20;94.40
51383;DHT22;37475;43.358;1.248;2023-02-20T01:55:44;5.00;94.00
51383;DHT22;37475;43.358;1.248;2023-02-20T01:58:28;4.80;93.80
51383;DHT22;37475;43.358;1.248;2023-02-20T02:00:59;4.70;93.80
51383;DHT22;37475;43.358;1.248;2023-02-20T02:03:28;4.80;93.80
51383;DHT22;37475;43.358;1.248;2023-02-20T02:06:02;4.90;93.70
51383;DHT22;37475;43.358;1.248;2023-02-20T02:08:29;4.90;93.30
51383;DHT22;37475;43.358;1.248;2023-02-20T02:13:23;4.60;93.10
51383;DHT22;37475;43.358;1.248;2023-02-20T02:15:59;4.60;93.30
51383;DHT22;37475;43.358;1.248;2023-02-20T02:30:21;4.70;92.70
51383;DHT22;37475;43.358;1.248;2023-02-20T02:33:23;4.60;92.90
51383;DHT22;37475;43.358;1.248;2023-02-20T02:48:45;4.60;94.40
51383;DHT22;37475;43.358;1.248;2023-02-20T02:51:25;4.60;94.30
51383;DHT22;37475;43.358;1.248;2023-02-20T02:54:12;4.50;94.10
51383;DHT22;37475;43.358;1.248;2023-02-20T02:56:42;4.50;94.40
51383;DHT22;37475;43.358;1.248;2023-02-20T02:59:19;4.40;94.50
51383;DHT22;37475;43.358;1.248;2023-02-20T03:01:58;4.30;94.60
51383;DHT22;37475;43.358;1.248;2023-02-20T03:04:27;4.30;94.70
51383;DHT22;37475;43.358;1.248;2023-02-20T03:06:59;4.40;94.70
51383;DHT22;37475;43.358;1.248;2023-02-20T03:09:53;4.40;94.60
51383;DHT22;37475;43.358;1.248;2023-02-20T03:12:26;4.40;94.50
51383;DHT22;37475;43.358;1.248;2023-02-20T03:15:05;4.40;94.30
51383;DHT22;37475;43.358;1.248;2023-02-20T03:18:02;4.40;94.20
51383;DHT22;37475;43.358;1.248;2023-02-20T03:20:40;4.50;94.00
51383;DHT22;37475;43.358;1.248;2023-02-20T03:23:10;4.20;93.50
51383;DHT22;37475;43.358;1.248;2023-02-20T03:25:45;4.20;93.90
51383;DHT22;37475;43.358;1.248;2023-02-20T03:28:21;4.10;94.10
51383;DHT22;37475;43.358;1.248;2023-02-20T03:31:10;4.20;94.20
51383;DHT22;37475;43.358;1.248;2023-02-20T03:33:45;4.30;94.20
51383;DHT22;37475;43.358;1.248;2023-02-20T03:36:44;4.30;94.00
51383;DHT22;37475;43.358;1.248;2023-02-20T03:39:37;4.30;93.80
51383;DHT22;37475;43.358;1.248;2023-02-20T03:42:25;4.20;93.50
51383;DHT22;37475;43.358;1.248;2023-02-20T03:45:11;4.20;93.20
51383;DHT22;37475;43.358;1.248;2023-02-20T03:47:42;4.20;93.00
51383;DHT22;37475;43.358;1.248;2023-02-20T03:50:10;4.20;92.80
51383;DHT22;37475;43.358;1.248;2023-02-20T03:52:55;4.20;92.60
51383;DHT22;37475;43.358;1.248;2023-02-20T03:55:22;4.20;92.40
51383;DHT22;37475;43.358;1.248;2023-02-20T03:57:52;4.20;92.20
51383;DHT22;37475;43.358;1.248;2023-02-20T04:00:24;4.20;91.90
51383;DHT22;37475;43.358;1.248;2023-02-20T04:02:56;4.10;91.90
51383;DHT22;37475;43.358;1.248;2023-02-20T04:05:31;4.10;91.70
51383;DHT22;37475;43.358;1.248;2023-02-20T04:08:15;4.10;91.50
51383;DHT22;37475;43.358;1.248;2023-02-20T04:10:52;3.80;91.30
51383;DHT22;37475;43.358;1.248;2023-02-20T04:13:19;3.60;92.20
51383;DHT22;37475;43.358;1.248;2023-02-20T04:15:45;3.70;92.70
51383;DHT22;37475;43.358;1.248;2023-02-20T04:18:15;3.70;92.80
51383;DHT22;37475;43.358;1.248;2023-02-20T04:20:47;3.70;92.70
51383;DHT22;37475;43.358;1.248;2023-02-20T04:23:18;3.80;92.70
51383;DHT22;37475;43.358;1.248;2023-02-20T04:26:06;3.80;92.40
51383;DHT22;37475;43.358;1.248;2023-02-20T04:28:34;3.60;92.10
51383;DHT22;37475;43.358;1.248;2023-02-20T04:31:00;3.70;92.00
51383;DHT22;37475;43.358;1.248;2023-02-20T04:33:26;3.60;91.70
51383;DHT22;37475;43.358;1.248;2023-02-20T04:35:52;3.50;91.60
51383;DHT22;37475;43.358;1.248;2023-02-20T04:38:19;3.40;91.50
51383;DHT22;37475;43.358;1.248;2023-02-20T04:40:45;3.20;92.00
51383;DHT22;37475;43.358;1.248;2023-02-20T04:43:10;3.10;92.40
51383;DHT22;37475;43.358;1.248;2023-02-20T04:45:36;3.00;92.70
51383;DHT22;37475;43.358;1.248;2023-02-20T04:48:02;3.10;93.00
51383;DHT22;37475;43.358;1.248;2023-02-20T04:50:31;3.00;93.20
51383;DHT22;37475;43.358;1.248;2023-02-20T04:52:58;2.90;93.70
51383;DHT22;37475;43.358;1.248;2023-02-20T04:55:25;3.00;94.10
51383;DHT22;37475;43.358;1.248;2023-02-20T04:57:52;3.10;94.20
51383;DHT22;37475;43.358;1.248;2023-02-20T05:00:20;3.00;94.30
51383;DHT22;37475;43.358;1.248;2023-02-20T05:02:47;2.90;94.40
51383;DHT22;37475;43.358;1.248;2023-02-20T05:07:46;3.00;94.50
51383;DHT22;37475;43.358;1.248;2023-02-20T05:10:17;3.00;94.50
51383;DHT22;37475;43.358;1.248;2023-02-20T05:12:44;3.10;94.50
51383;DHT22;37475;43.358;1.248;2023-02-20T05:15:10;2.80;94.20
51383;DHT22;37475;43.358;1.248;2023-02-20T05:17:36;2.90;94.40
51383;DHT22;37475;43.358;1.248;2023-02-20T05:20:04;2.80;94.20
51383;DHT22;37475;43.358;1.248;2023-02-20T05:22:30;2.80;94.30
51383;DHT22;37475;43.358;1.248;2023-02-20T05:24:56;2.80;94.40
51383;DHT22;37475;43.358;1.248;2023-02-20T05:27:23;2.70;94.30
51383;DHT22;37475;43.358;1.248;2023-02-20T05:29:52;2.70;94.40
51383;DHT22;37475;43.358;1.248;2023-02-20T05:32:21;2.70;94.40
51383;DHT22;37475;43.358;1.248;2023-02-20T05:34:47;2.80;94.40
51383;DHT22;37475;43.358;1.248;2023-02-20T05:37:15;2.80;94.30
51383;DHT22;37475;43.358;1.248;2023-02-20T05:39:42;2.90;94.20
51383;DHT22;37475;43.358;1.248;2023-02-20T05:42:08;2.80;93.80
51383;DHT22;37475;43.358;1.248;2023-02-20T05:44:34;2.60;93.70
51383;DHT22;37475;43.358;1.248;2023-02-20T05:47:01;2.40;93.60
51383;DHT22;37475;43.358;1.248;2023-02-20T05:49:28;2.30;93.60
51383;DHT22;37475;43.358;1.248;2023-02-20T05:51:57;2.20;93.60
51383;DHT22;37475;43.358;1.248;2023-02-20T05:54:23;2.20;93.70
51383;DHT22;37475;43.358;1.248;2023-02-20T05:56:50;2.20;93.70
51383;DHT22;37475;43.358;1.248;2023-02-20T05:59:21;2.30;93.80
51383;DHT22;37475;43.358;1.248;2023-02-20T06:01:48;2.30;93.70
51383;DHT22;37475;43.358;1.248;2023-02-20T06:04:19;2.40;93.60
51383;DHT22;37475;43.358;1.248;2023-02-20T06:06:45;2.40;93.50
51383;DHT22;37475;43.358;1.248;2023-02-20T06:09:11;2.50;93.40
51383;DHT22;37475;43.358;1.248;2023-02-20T06:11:41;2.50;93.20
51383;DHT22;37475;43.358;1.248;2023-02-20T06:14:15;2.50;93.10
51383;DHT22;37475;43.358;1.248;2023-02-20T06:16:43;2.50;92.90
51383;DHT22;37475;43.358;1.248;2023-02-20T06:19:10;2.50;92.80
51383;DHT22;37475;43.358;1.248;2023-02-20T06:21:36;2.50;92.60
51383;DHT22;37475;43.358;1.248;2023-02-20T06:24:05;2.60;92.40
51383;DHT22;37475;43.358;1.248;2023-02-20T06:26:31;2.60;92.10
51383;DHT22;37475;43.358;1.248;2023-02-20T06:28:57;2.60;91.90
51383;DHT22;37475;43.358;1.248;2023-02-20T06:31:26;2.60;91.70
51383;DHT22;37475;43.358;1.248;2023-02-20T06:33:53;2.10;91.50
51383;DHT22;37475;43.358;1.248;2023-02-20T06:36:28;2.20;92.00
51383;DHT22;37475;43.358;1.248;2023-02-20T06:38:57;2.20;92.10
51383;DHT22;37475;43.358;1.248;2023-02-20T06:41:23;2.20;92.10
51383;DHT22;37475;43.358;1.248;2023-02-20T06:43:49;2.20;92.20
51383;DHT22;37475;43.358;1.248;2023-02-20T06:46:15;2.20;92.20
51383;DHT22;37475;43.358;1.248;2023-02-20T06:48:46;2.10;91.90
51383;DHT22;37475;43.358;1.248;2023-02-20T06:51:39;2.10;92.10
51383;DHT22;37475;43.358;1.248;2023-02-20T06:54:06;1.90;92.00
51383;DHT22;37475;43.358;1.248;2023-02-20T06:56:34;1.90;92.20
51383;DHT22;37475;43.358;1.248;2023-02-20T06:59:01;2.00;92.40
51383;DHT22;37475;43.358;1.248;2023-02-20T07:01:30;2.00;92.40
51383;DHT22;37475;43.358;1.248;2023-02-20T07:04:04;2.10;92.30
51383;DHT22;37475;43.358;1.248;2023-02-20T07:06:30;1.90;92.40
51383;DHT22;37475;43.358;1.248;2023-02-20T07:08:56;1.90;92.60
51383;DHT22;37475;43.358;1.248;2023-02-20T07:11:22;2.00;92.70
51383;DHT22;37475;43.358;1.248;2023-02-20T07:13:49;2.00;92.70
51383;DHT22;37475;43.358;1.248;2023-02-20T07:16:15;2.20;93.40
51383;DHT22;37475;43.358;1.248;2023-02-20T07:18:41;2.40;94.00
51383;DHT22;37475;43.358;1.248;2023-02-20T07:21:07;2.50;94.40
51383;DHT22;37475;43.358;1.248;2023-02-20T07:23:33;2.50;94.70
51383;DHT22;37475;43.358;1.248;2023-02-20T07:25:59;2.60;95.10
51383;DHT22;37475;43.358;1.248;2023-02-20T07:28:25;2.70;95.30
51383;DHT22;37475;43.358;1.248;2023-02-20T07:30:51;2.70;95.40
51383;DHT22;37475;43.358;1.248;2023-02-20T07:33:17;2.70;95.50
51383;DHT22;37475;43.358;1.248;2023-02-20T07:35:43;2.80;95.70
51383;DHT22;37475;43.358;1.248;2023-02-20T07:38:10;2.80;95.80
51383;DHT22;37475;43.358;1.248;2023-02-20T07:40:36;2.80;95.90
51383;DHT22;37475;43.358;1.248;2023-02-20T07:43:02;2.90;96.00
51383;DHT22;37475;43.358;1.248;2023-02-20T07:45:28;2.90;96.00
51383;DHT22;37475;43.358;1.248;2023-02-20T07:47:54;3.00;96.00
51383;DHT22;37475;43.358;1.248;2023-02-20T07:50:20;3.10;96.00
51383;DHT22;37475;43.358;1.248;2023-02-20T07:52:46;3.10;96.00
51383;DHT22;37475;43.358;1.248;2023-02-20T07:55:16;3.20;96.10
51383;DHT22;37475;43.358;1.248;2023-02-20T07:57:45;3.30;96.10
51383;DHT22;37475;43.358;1.248;2023-02-20T08:00:13;3.30;96.10
51383;DHT22;37475;43.358;1.248;2023-02-20T08:02:40;3.40;96.10
51383;DHT22;37475;43.358;1.248;2023-02-20T08:05:06;3.40;96.00
51383;DHT22;37475;43.358;1.248;2023-02-20T08:07:32;3.40;96.10
51383;DHT22;37475;43.358;1.248;2023-02-20T08:09:58;3.40;96.10
51383;DHT22;37475;43.358;1.248;2023-02-20T08:12:24;3.50;96.10
51383;DHT22;37475;43.358;1.248;2023-02-20T08:14:49;3.60;96.30
51383;DHT22;37475;43.358;1.248;2023-02-20T08:17:16;3.60;96.30
51383;DHT22;37475;43.358;1.248;2023-02-20T08:19:43;3.70;96.30
51383;DHT22;37475;43.358;1.248;2023-02-20T08:22:09;3.80;96.40
51383;DHT22;37475;43.358;1.248;2023-02-20T08:24:34;3.90;96.40
51383;DHT22;37475;43.358;1.248;2023-02-20T08:27:00;4.10;96.40
51383;DHT22;37475;43.358;1.248;2023-02-20T08:29:26;4.20;96.50
51383;DHT22;37475;43.358;1.248;2023-02-20T08:31:52;4.40;96.50
51383;DHT22;37475;43.358;1.248;2023-02-20T08:34:18;4.50;96.50
51383;DHT22;37475;43.358;1.248;2023-02-20T08:36:43;4.60;96.40
51383;DHT22;37475;43.358;1.248;2023-02-20T08:39:09;4.70;96.40
51383;DHT22;37475;43.358;1.248;2023-02-20T08:41:44;4.80;96.40
51383;DHT22;37475;43.358;1.248;2023-02-20T08:44:11;5.00;96.40
51383;DHT22;37475;43.358;1.248;2023-02-20T08:46:39;5.10;96.40
51383;DHT22;37475;43.358;1.248;2023-02-20T08:49:10;5.10;96.20
51383;DHT22;37475;43.358;1.248;2023-02-20T08:51:36;5.20;96.10
51383;DHT22;37475;43.358;1.248;2023-02-20T08:54:02;5.30;95.80
51383;DHT22;37475;43.358;1.248;2023-02-20T08:56:28;5.50;95.80
51383;DHT22;37475;43.358;1.248;2023-02-20T08:58:54;5.60;95.70
51383;DHT22;37475;43.358;1.248;2023-02-20T09:01:20;5.70;95.60
51383;DHT22;37475;43.358;1.248;2023-02-20T09:03:46;5.90;95.50
51383;DHT22;37475;43.358;1.248;2023-02-20T09:06:13;6.00;95.30
51383;DHT22;37475;43.358;1.248;2023-02-20T09:08:39;6.10;95.00
51383;DHT22;37475;43.358;1.248;2023-02-20T09:11:05;6.10;94.80
51383;DHT22;37475;43.358;1.248;2023-02-20T09:13:32;6.20;94.80
51383;DHT22;37475;43.358;1.248;2023-02-20T09:15:58;6.40;94.70
51383;DHT22;37475;43.358;1.248;2023-02-20T09:18:23;6.50;94.60
51383;DHT22;37475;43.358;1.248;2023-02-20T09:20:49;6.60;94.60
51383;DHT22;37475;43.358;1.248;2023-02-20T09:23:15;6.80;94.60
51383;DHT22;37475;43.358;1.248;2023-02-20T09:25:42;6.90;94.40
51383;DHT22;37475;43.358;1.248;2023-02-20T09:28:08;7.00;94.20
51383;DHT22;37475;43.358;1.248;2023-02-20T09:30:33;7.20;94.00
51383;DHT22;37475;43.358;1.248;2023-02-20T09:32:59;7.40;93.80
51383;DHT22;37475;43.358;1.248;2023-02-20T09:35:28;7.50;93.40
51383;DHT22;37475;43.358;1.248;2023-02-20T09:37:55;7.60;93.10
51383;DHT22;37475;43.358;1.248;2023-02-20T09:40:26;7.90;92.70
51383;DHT22;37475;43.358;1.248;2023-02-20T09:45:52;8.20;92.30
51383;DHT22;37475;43.358;1.248;2023-02-20T09:51:18;8.60;91.90
51383;DHT22;37475;43.358;1.248;2023-02-20T09:54:00;8.70;91.60
51383;DHT22;37475;43.358;1.248;2023-02-20T09:56:35;8.90;91.10
51383;DHT22;37475;43.358;1.248;2023-02-20T09:59:12;9.10;90.70
51383;DHT22;37475;43.358;1.248;2023-02-20T10:01:48;9.20;89.90
51383;DHT22;37475;43.358;1.248;2023-02-20T10:04:21;9.50;89.50
51383;DHT22;37475;43.358;1.248;2023-02-20T10:06:53;9.60;89.00
51383;DHT22;37475;43.358;1.248;2023-02-20T10:09:25;9.80;89.00
51383;DHT22;37475;43.358;1.248;2023-02-20T10:12:08;10.20;89.00
51383;DHT22;37475;43.358;1.248;2023-02-20T10:26:48;11.70;85.70
51383;DHT22;37475;43.358;1.248;2023-02-20T10:29:24;12.00;84.80
51383;DHT22;37475;43.358;1.248;2023-02-20T10:31:59;12.30;83.60
51383;DHT22;37475;43.358;1.248;2023-02-20T10:34:34;12.60;82.40
51383;DHT22;37475;43.358;1.248;2023-02-20T10:37:25;12.80;81.20
51383;DHT22;37475;43.358;1.248;2023-02-20T10:43:09;13.00;81.10
51383;DHT22;37475;43.358;1.248;2023-02-20T10:45:51;13.20;80.20
51383;DHT22;37475;43.358;1.248;2023-02-20T10:48:37;13.60;78.50
51383;DHT22;37475;43.358;1.248;2023-02-20T10:51:33;14.10;77.50
51383;DHT22;37475;43.358;1.248;2023-02-20T10:54:13;14.00;77.50
51383;DHT22;37475;43.358;1.248;2023-02-20T10:59:36;14.20;76.70
51383;DHT22;37475;43.358;1.248;2023-02-20T11:02:16;14.50;76.70
51383;DHT22;37475;43.358;1.248;2023-02-20T11:04:51;15.10;75.40
51383;DHT22;37475;43.358;1.248;2023-02-20T11:07:23;14.90;74.10
51383;DHT22;37475;43.358;1.248;2023-02-20T11:09:48;14.90;74.90
51383;DHT22;37475;43.358;1.248;2023-02-20T11:13:07;15.20;74.50
51383;DHT22;37475;43.358;1.248;2023-02-20T11:15:12;15.20;74.70
51383;DHT22;37475;43.358;1.248;2023-02-20T11:17:41;16.00;72.90
51383;DHT22;37475;43.358;1.248;2023-02-20T11:23:00;16.10;71.20
51383;DHT22;37475;43.358;1.248;2023-02-20T11:25:32;16.60;69.90
51383;DHT22;37475;43.358;1.248;2023-02-20T11:30:44;17.30;68.00
51383;DHT22;37475;43.358;1.248;2023-02-20T11:33:18;17.60;64.80
51383;DHT22;37475;43.358;1.248;2023-02-20T11:35:50;17.70;65.30
51383;DHT22;37475;43.358;1.248;2023-02-20T11:38:25;18.00;65.00
51383;DHT22;37475;43.358;1.248;2023-02-20T11:43:41;19.10;60.40
51383;DHT22;37475;43.358;1.248;2023-02-20T11:46:21;19.80;57.90
51383;DHT22;37475;43.358;1.248;2023-02-20T11:49:01;20.00;57.30
51383;DHT22;37475;43.358;1.248;2023-02-20T11:51:47;20.50;56.00
51383;DHT22;37475;43.358;1.248;2023-02-20T11:54:25;20.20;56.90
51383;DHT22;37475;43.358;1.248;2023-02-20T11:59:48;19.40;56.80
51383;DHT22;37475;43.358;1.248;2023-02-20T12:04:43;20.00;55.40
51383;DHT22;37475;43.358;1.248;2023-02-20T12:07:27;20.30;52.60
51383;DHT22;37475;43.358;1.248;2023-02-20T12:09:56;20.60;53.70
51383;DHT22;37475;43.358;1.248;2023-02-20T12:12:26;20.50;53.70
51383;DHT22;37475;43.358;1.248;2023-02-20T12:14:53;20.20;53.80
51383;DHT22;37475;43.358;1.248;2023-02-20T12:20:22;21.20;49.90
51383;DHT22;37475;43.358;1.248;2023-02-20T12:31:44;20.60;53.70
51383;DHT22;37475;43.358;1.248;2023-02-20T12:34:45;21.50;51.10
51383;DHT22;37475;43.358;1.248;2023-02-20T12:37:38;21.60;51.40
51383;DHT22;37475;43.358;1.248;2023-02-20T12:51:52;22.80;48.20
51383;DHT22;37475;43.358;1.248;2023-02-20T12:54:43;23.00;47.70
51383;DHT22;37475;43.358;1.248;2023-02-20T12:57:17;22.50;48.30
51383;DHT22;37475;43.358;1.248;2023-02-20T13:00:01;22.60;48.30
51383;DHT22;37475;43.358;1.248;2023-02-20T13:02:38;23.00;47.10
51383;DHT22;37475;43.358;1.248;2023-02-20T13:05:11;22.30;46.50
51383;DHT22;37475;43.358;1.248;2023-02-20T13:07:55;22.30;47.10
51383;DHT22;37475;43.358;1.248;2023-02-20T13:10:35;23.10;45.70
51383;DHT22;37475;43.358;1.248;2023-02-20T13:13:09;24.00;45.20
51383;DHT22;37475;43.358;1.248;2023-02-20T13:16:46;23.70;43.90
51383;DHT22;37475;43.358;1.248;2023-02-20T13:19:25;24.00;43.60
51383;DHT22;37475;43.358;1.248;2023-02-20T13:22:02;24.10;42.10
51383;DHT22;37475;43.358;1.248;2023-02-20T13:24:32;24.10;42.80
51383;DHT22;37475;43.358;1.248;2023-02-20T13:27:08;24.50;40.50
51383;DHT22;37475;43.358;1.248;2023-02-20T13:29:59;25.20;41.40
51383;DHT22;37475;43.358;1.248;2023-02-20T13:32:29;25.10;39.70
51383;DHT22;37475;43.358;1.248;2023-02-20T13:38:11;25.50;39.20
51383;DHT22;37475;43.358;1.248;2023-02-20T13:40:43;24.80;40.70
51383;DHT22;37475;43.358;1.248;2023-02-20T13:48:47;24.50;41.50
51383;DHT22;37475;43.358;1.248;2023-02-20T13:59:11;24.10;41.80
51383;DHT22;37475;43.358;1.248;2023-02-20T14:04:29;25.90;38.60
51383;DHT22;37475;43.358;1.248;2023-02-20T14:06:56;26.00;38.60
51383;DHT22;37475;43.358;1.248;2023-02-20T14:09:25;26.50;37.50
51383;DHT22;37475;43.358;1.248;2023-02-20T14:12:05;26.50;34.80
51383;DHT22;37475;43.358;1.248;2023-02-20T14:14:36;26.60;35.00
51383;DHT22;37475;43.358;1.248;2023-02-20T14:17:18;26.50;34.80
51383;DHT22;37475;43.358;1.248;2023-02-20T14:19:47;27.10;33.80
51383;DHT22;37475;43.358;1.248;2023-02-20T14:27:39;25.10;35.90
51383;DHT22;37475;43.358;1.248;2023-02-20T14:30:16;25.80;37.40
51383;DHT22;37475;43.358;1.248;2023-02-20T14:32:52;26.00;36.30
51383;DHT22;37475;43.358;1.248;2023-02-20T14:35:31;26.10;35.60
51383;DHT22;37475;43.358;1.248;2023-02-20T14:41:23;26.30;36.40
51383;DHT22;37475;43.358;1.248;2023-02-20T14:44:00;25.70;36.80
51383;DHT22;37475;43.358;1.248;2023-02-20T14:46:34;25.30;37.30
51383;DHT22;37475;43.358;1.248;2023-02-20T14:49:10;25.90;36.70
51383;DHT22;37475;43.358;1.248;2023-02-20T14:51:39;25.50;36.60
51383;DHT22;37475;43.358;1.248;2023-02-20T14:54:23;25.50;36.70
51383;DHT22;37475;43.358;1.248;2023-02-20T14:56:51;25.00;36.60
51383;DHT22;37475;43.358;1.248;2023-02-20T14:59:25;25.80;36.60
51383;DHT22;37475;43.358;1.248;2023-02-20T15:04:54;26.20;35.30
51383;DHT22;37475;43.358;1.248;2023-02-20T15:07:35;25.90;36.50
51383;DHT22;37475;43.358;1.248;2023-02-20T15:10:07;26.20;36.40
51383;DHT22;37475;43.358;1.248;2023-02-20T15:13:11;26.70;35.40
51383;DHT22;37475;43.358;1.248;2023-02-20T15:15:42;26.90;35.10
51383;DHT22;37475;43.358;1.248;2023-02-20T15:18:15;27.20;34.20
51383;DHT22;37475;43.358;1.248;2023-02-20T15:21:02;27.00;33.60
51383;DHT22;37475;43.358;1.248;2023-02-20T15:23:44;26.80;34.50
51383;DHT22;37475;43.358;1.248;2023-02-20T15:26:34;26.90;33.80
51383;DHT22;37475;43.358;1.248;2023-02-20T15:29:22;27.10;33.60
51383;DHT22;37475;43.358;1.248;2023-02-20T15:32:33;27.20;33.10
51383;DHT22;37475;43.358;1.248;2023-02-20T15:34:55;27.00;33.10
51383;DHT22;37475;43.358;1.248;2023-02-20T15:37:27;26.60;35.10
51383;DHT22;37475;43.358;1.248;2023-02-20T15:39:54;26.90;33.50
51383;DHT22;37475;43.358;1.248;2023-02-20T15:42:23;26.00;33.90
51383;DHT22;37475;43.358;1.248;2023-02-20T15:44:49;26.40;33.30
51383;DHT22;37475;43.358;1.248;2023-02-20T15:47:16;26.60;32.60
51383;DHT22;37475;43.358;1.248;2023-02-20T15:49:42;26.10;33.80
51383;DHT22;37475;43.358;1.248;2023-02-20T15:52:14;26.10;33.80
51383;DHT22;37475;43.358;1.248;2023-02-20T15:54:46;25.30;34.50
51383;DHT22;37475;43.358;1.248;2023-02-20T15:57:16;25.20;35.30
51383;DHT22;37475;43.358;1.248;2023-02-20T15:59:43;25.00;33.70
51383;DHT22;37475;43.358;1.248;2023-02-20T16:02:15;24.50;34.70
51383;DHT22;37475;43.358;1.248;2023-02-20T16:04:46;24.30;34.70
51383;DHT22;37475;43.358;1.248;2023-02-20T16:07:13;23.90;36.50
51383;DHT22;37475;43.358;1.248;2023-02-20T16:09:39;24.10;35.20
51383;DHT22;37475;43.358;1.248;2023-02-20T16:12:05;24.20;34.20
51383;DHT22;37475;43.358;1.248;2023-02-20T16:14:31;25.00;33.90
51383;DHT22;37475;43.358;1.248;2023-02-20T16:16:57;24.30;34.60
51383;DHT22;37475;43.358;1.248;2023-02-20T16:19:23;23.70;35.90
51383;DHT22;37475;43.358;1.248;2023-02-20T16:21:50;23.70;35.30
51383;DHT22;37475;43.358;1.248;2023-02-20T16:24:16;23.80;36.20
51383;DHT22;37475;43.358;1.248;2023-02-20T16:26:44;23.30;36.70
51383;DHT22;37475;43.358;1.248;2023-02-20T16:29:21;23.30;37.50
51383;DHT22;37475;43.358;1.248;2023-02-20T16:34:24;22.00;39.60
51383;DHT22;37475;43.358;1.248;2023-02-20T16:36:56;22.10;39.40
51383;DHT22;37475;43.358;1.248;2023-02-20T16:39:22;21.90;39.70
51383;DHT22;37475;43.358;1.248;2023-02-20T16:41:48;22.10;40.00
51383;DHT22;37475;43.358;1.248;2023-02-20T16:44:20;22.50;39.10
51383;DHT22;37475;43.358;1.248;2023-02-20T16:46:48;21.90;40.80
51383;DHT22;37475;43.358;1.248;2023-02-20T16:49:14;22.30;40.20
51383;DHT22;37475;43.358;1.248;2023-02-20T16:51:42;21.80;41.10
51383;DHT22;37475;43.358;1.248;2023-02-20T16:54:23;21.30;42.70
51383;DHT22;37475;43.358;1.248;2023-02-20T16:56:49;20.70;44.30
51383;DHT22;37475;43.358;1.248;2023-02-20T16:59:15;20.40;45.70
51383;DHT22;37475;43.358;1.248;2023-02-20T17:01:41;20.10;46.60
51383;DHT22;37475;43.358;1.248;2023-02-20T17:04:07;20.00;46.90
51383;DHT22;37475;43.358;1.248;2023-02-20T17:06:34;19.90;47.10
51383;DHT22;37475;43.358;1.248;2023-02-20T17:09:00;19.20;49.10
51383;DHT22;37475;43.358;1.248;2023-02-20T17:11:26;18.70;51.30
51383;DHT22;37475;43.358;1.248;2023-02-20T17:13:52;18.70;52.30
51383;DHT22;37475;43.358;1.248;2023-02-20T17:16:18;18.20;54.50
51383;DHT22;37475;43.358;1.248;2023-02-20T17:18:44;18.10;55.40
51383;DHT22;37475;43.358;1.248;2023-02-20T17:21:10;17.50;57.80
51383;DHT22;37475;43.358;1.248;2023-02-20T17:23:36;17.20;59.00
51383;DHT22;37475;43.358;1.248;2023-02-20T17:26:02;17.00;60.80
51383;DHT22;37475;43.358;1.248;2023-02-20T17:28:28;17.10;60.30
51383;DHT22;37475;43.358;1.248;2023-02-20T17:30:54;16.80;62.90
51383;DHT22;37475;43.358;1.248;2023-02-20T17:33:21;16.60;63.30
51383;DHT22;37475;43.358;1.248;2023-02-20T17:35:47;16.50;63.60
51383;DHT22;37475;43.358;1.248;2023-02-20T17:38:13;16.40;64.50
51383;DHT22;37475;43.358;1.248;2023-02-20T17:40:39;16.20;64.90
51383;DHT22;37475;43.358;1.248;2023-02-20T17:43:05;16.00;64.80
51383;DHT22;37475;43.358;1.248;2023-02-20T17:45:31;15.90;65.80
51383;DHT22;37475;43.358;1.248;2023-02-20T17:47:57;15.80;65.80
51383;DHT22;37475;43.358;1.248;2023-02-20T17:50:23;15.60;66.50
51383;DHT22;37475;43.358;1.248;2023-02-20T17:52:52;15.60;66.70
51383;DHT22;37475;43.358;1.248;2023-02-20T17:55:24;15.40;67.40
51383;DHT22;37475;43.358;1.248;2023-02-20T17:57:51;15.30;67.40
51383;DHT22;37475;43.358;1.248;2023-02-20T18:00:18;15.20;67.00
51383;DHT22;37475;43.358;1.248;2023-02-20T18:02:45;15.10;67.50
51383;DHT22;37475;43.358;1.248;2023-02-20T18:05:11;15.00;66.70
51383;DHT22;37475;43.358;1.248;2023-02-20T18:07:37;14.80;67.60
51383;DHT22;37475;43.358;1.248;2023-02-20T18:10:03;14.60;68.50